Time;durP1;ratioP1;P1;durP2;ratioP2;P2;SDS_P1;SDS_P2;PMS_P1;PMS_P2;Temp;Humidity;BMP_temperature;BMP_pressure;BME280_temperature;BME280_humidity;BME280_pressure;Samples;Min_cycle;Max_cycle;Signal;HPM_P1;HPM_P2
2021/06/22 00:01:37;;;;;;;2.72;1.60;;;;;;;;;;5053934;28;20029;-52
2021/06/22 00:04:03;;;;;;;5.20;1.40;;;;;;;;;;5054530;28;20029;-52
2021/06/22 00:06:29;;;;;;;12.73;1.55;;;;;;;;;;5054626;28;20017;-51
2021/06/22 00:08:55;;;;;;;2.58;1.42;;;;;;;;;;5054581;28;20356;-52
2021/06/22 00:11:22;;;;;;;5.82;1.58;;;;;;;;;;5053665;28;20017;-51
2021/06/22 00:13:48;;;;;;;1.98;1.23;;;;;;;;;;5053662;28;20036;-51
2021/06/22 00:16:14;;;;;;;7.72;1.90;;;;;;;;;;5054428;28;20017;-52
2021/06/22 00:18:40;;;;;;;2.83;1.50;;;;;;;;;;5053978;28;20391;-52
2021/06/22 00:21:06;;;;;;;5.68;1.75;;;;;;;;;;5053695;28;20460;-52
2021/06/22 00:23:32;;;;;;;2.05;1.35;;;;;;;;;;5053966;28;20029;-51
2021/06/22 00:25:59;;;;;;;3.28;1.50;;;;;;;;;;5054229;28;20021;-52
2021/06/22 00:28:25;;;;;;;8.60;1.50;;;;;;;;;;5053579;28;20024;-52
2021/06/22 00:30:51;;;;;;;3.70;1.80;;;;;;;;;;5052137;28;20029;-51
2021/06/22 00:33:17;;;;;;;2.08;1.25;;;;;;;;;;5053757;28;20124;-51
2021/06/22 00:35:43;;;;;;;1.35;1.25;;;;;;;;;;5054115;28;20109;-51
2021/06/22 00:38:09;;;;;;;1.85;1.50;;;;;;;;;;5053662;28;20441;-51
2021/06/22 00:40:35;;;;;;;3.75;1.90;;;;;;;;;;5053387;28;20044;-51
2021/06/22 00:43:01;;;;;;;4.30;1.95;;;;;;;;;;5053120;28;20025;-51
2021/06/22 00:45:31;;;;;;;5.38;2.20;;;;;;;;;;5053983;28;20056;-51
2021/06/22 00:47:57;;;;;;;7.22;2.28;;;;;;;;;;5053925;28;20045;-51
2021/06/22 00:50:23;;;;;;;3.33;2.13;;;;;;;;;;5053266;28;20056;-51
2021/06/22 00:52:50;;;;;;;3.20;1.83;;;;;;;;;;5052976;28;20363;-51
2021/06/22 00:55:34;;;;;;;4.78;1.88;;;;;;;;;;5053800;28;20020;-51
2021/06/22 00:58:02;;;;;;;8.10;2.05;;;;;;;;;;5053660;28;20063;-51
2021/06/22 01:00:28;;;;;;;2.72;1.95;;;;;;;;;;5052889;28;20025;-51
2021/06/22 01:02:55;;;;;;;3.53;2.10;;;;;;;;;;5053643;28;20051;-51
2021/06/22 01:05:21;;;;;;;3.63;2.13;;;;;;;;;;5053259;28;20159;-51
2021/06/22 01:07:48;;;;;;;3.03;1.80;;;;;;;;;;5053298;28;20031;-51
2021/06/22 01:10:14;;;;;;;7.00;2.13;;;;;;;;;;5052783;28;20021;-52
2021/06/22 01:12:40;;;;;;;3.00;1.52;;;;;;;;;;5053511;28;20028;-51
2021/06/22 01:15:13;;;;;;;2.35;1.83;;;;;;;;;;5053176;28;20082;-51
2021/06/22 01:17:39;;;;;;;4.45;2.08;;;;;;;;;;5053033;28;20021;-52
2021/06/22 01:20:05;;;;;;;8.15;1.65;;;;;;;;;;5052761;28;20033;-51
2021/06/22 01:22:31;;;;;;;5.72;1.73;;;;;;;;;;5052634;28;20035;-52
2021/06/22 01:24:58;;;;;;;10.07;1.92;;;;;;;;;;5052971;28;20025;-51
2021/06/22 01:27:25;;;;;;;4.95;1.70;;;;;;;;;;5052738;28;20021;-51
2021/06/22 01:29:52;;;;;;;4.95;2.05;;;;;;;;;;5053079;28;20021;-51
2021/06/22 01:32:18;;;;;;;5.15;1.67;;;;;;;;;;5051965;28;20071;-51
2021/06/22 01:34:44;;;;;;;2.20;1.70;;;;;;;;;;5051331;28;20037;-51
2021/06/22 01:37:10;;;;;;;9.23;2.08;;;;;;;;;;5052814;28;20468;-52
2021/06/22 01:39:37;;;;;;;3.25;1.90;;;;;;;;;;5052874;28;20036;-51
2021/06/22 01:42:03;;;;;;;2.97;2.40;;;;;;;;;;5052223;28;20025;-52
2021/06/22 01:44:29;;;;;;;4.45;2.25;;;;;;;;;;5052642;28;20029;-51
2021/06/22 01:46:55;;;;;;;7.78;1.67;;;;;;;;;;5052868;28;20104;-52
2021/06/22 01:49:21;;;;;;;8.18;1.90;;;;;;;;;;5051602;28;20115;-52
2021/06/22 01:51:47;;;;;;;11.85;1.98;;;;;;;;;;5051731;28;20433;-52
2021/06/22 01:54:13;;;;;;;4.70;2.17;;;;;;;;;;5052865;28;20124;-51
2021/06/22 01:56:46;;;;;;;7.85;1.70;;;;;;;;;;5052938;28;20021;-52
2021/06/22 01:59:12;;;;;;;9.20;2.13;;;;;;;;;;5052194;28;20067;-52
2021/06/22 02:01:38;;;;;;;7.18;1.85;;;;;;;;;;5051914;28;20483;-52
2021/06/22 02:04:04;;;;;;;8.18;1.83;;;;;;;;;;5052723;28;20025;-52
2021/06/22 02:06:30;;;;;;;2.80;1.90;;;;;;;;;;5056424;28;20064;-51
2021/06/22 02:08:56;;;;;;;3.25;2.42;;;;;;;;;;5057049;28;20388;-52
2021/06/22 02:11:21;;;;;;;4.50;2.08;;;;;;;;;;5056175;28;20029;-52
2021/06/22 02:13:48;;;;;;;2.15;1.70;;;;;;;;;;5056482;28;20444;-51
2021/06/22 02:16:15;;;;;;;5.18;2.10;;;;;;;;;;5056751;28;20075;-51
2021/06/22 02:18:41;;;;;;;5.90;2.00;;;;;;;;;;5056135;28;20033;-52
2021/06/22 02:21:07;;;;;;;4.40;1.75;;;;;;;;;;5056128;28;20025;-52
2021/06/22 02:23:34;;;;;;;5.07;2.30;;;;;;;;;;5056784;28;20351;-51
2021/06/22 02:26:00;;;;;;;4.85;2.10;;;;;;;;;;5056898;28;20024;-51
2021/06/22 02:28:26;;;;;;;2.10;1.88;;;;;;;;;;5056215;28;20104;-52
2021/06/22 02:30:52;;;;;;;3.53;2.17;;;;;;;;;;5055584;28;20096;-52
2021/06/22 02:33:19;;;;;;;7.90;2.10;;;;;;;;;;5055880;28;20470;-52
2021/06/22 02:35:46;;;;;;;2.90;2.33;;;;;;;;;;5056601;28;20471;-52
2021/06/22 02:38:12;;;;;;;2.97;1.83;;;;;;;;;;5056327;28;20071;-52
2021/06/22 02:40:38;;;;;;;5.10;2.40;;;;;;;;;;5055508;28;20123;-51
2021/06/22 02:43:04;;;;;;;5.47;2.03;;;;;;;;;;5056298;28;20029;-51
2021/06/22 02:45:35;;;;;;;5.10;1.67;;;;;;;;;;5055792;28;20455;-52
2021/06/22 02:48:01;;;;;;;5.15;2.22;;;;;;;;;;5050954;28;20111;-51
2021/06/22 02:50:27;;;;;;;7.63;2.30;;;;;;;;;;5055903;28;20059;-51
2021/06/22 02:52:53;;;;;;;3.63;2.22;;;;;;;;;;5055572;28;20052;-51
2021/06/22 02:55:19;;;;;;;2.53;2.20;;;;;;;;;;5056141;28;20036;-51
2021/06/22 02:57:49;;;;;;;4.97;2.20;;;;;;;;;;5055994;28;20029;-51
2021/06/22 03:00:15;;;;;;;7.30;2.10;;;;;;;;;;5054682;28;20448;-51
2021/06/22 03:02:41;;;;;;;4.32;1.85;;;;;;;;;;5055686;28;20036;-51
2021/06/22 03:05:08;;;;;;;2.80;2.05;;;;;;;;;;5055456;28;20023;-51
2021/06/22 03:07:34;;;;;;;4.28;1.83;;;;;;;;;;5055484;28;20144;-52
2021/06/22 03:10:00;;;;;;;6.40;2.58;;;;;;;;;;5055682;28;20053;-52
2021/06/22 03:12:26;;;;;;;2.88;2.28;;;;;;;;;;5054987;28;20025;-51
2021/06/22 03:14:52;;;;;;;6.47;2.33;;;;;;;;;;5055038;28;20036;-51
2021/06/22 03:17:18;;;;;;;7.03;1.80;;;;;;;;;;5055418;28;20494;-51
2021/06/22 03:19:44;;;;;;;8.55;2.50;;;;;;;;;;5055343;28;20075;-52
2021/06/22 03:22:10;;;;;;;2.42;1.92;;;;;;;;;;5054858;28;20017;-51
2021/06/22 03:24:36;;;;;;;5.38;2.25;;;;;;;;;;5055560;28;20079;-51
2021/06/22 03:27:02;;;;;;;2.90;1.55;;;;;;;;;;5055557;28;20025;-51
2021/06/22 03:29:28;;;;;;;4.85;2.13;;;;;;;;;;5055180;28;20033;-52
2021/06/22 03:31:54;;;;;;;3.30;1.60;;;;;;;;;;5054021;28;20025;-52
2021/06/22 03:34:20;;;;;;;4.35;2.00;;;;;;;;;;5055169;28;20037;-51
2021/06/22 03:36:46;;;;;;;5.32;2.22;;;;;;;;;;5055216;28;20090;-51
2021/06/22 03:39:12;;;;;;;4.45;1.98;;;;;;;;;;5053887;28;20032;-51
2021/06/22 03:41:38;;;;;;;8.10;2.35;;;;;;;;;;5053633;28;20021;-51
2021/06/22 03:44:05;;;;;;;4.57;2.28;;;;;;;;;;5054480;28;20037;-52
2021/06/22 03:46:31;;;;;;;4.80;2.00;;;;;;;;;;5054969;28;20044;-51
2021/06/22 03:48:57;;;;;;;7.15;1.67;;;;;;;;;;5054776;28;20025;-51
2021/06/22 03:51:23;;;;;;;6.90;2.13;;;;;;;;;;5054529;28;20029;-51
2021/06/22 03:53:49;;;;;;;4.20;1.92;;;;;;;;;;5054710;28;20063;-52
2021/06/22 03:56:16;;;;;;;4.28;2.03;;;;;;;;;;5055149;28;20033;-51
2021/06/22 03:58:42;;;;;;;4.82;2.20;;;;;;;;;;5054482;28;20053;-51
2021/06/22 04:01:08;;;;;;;6.05;2.33;;;;;;;;;;5053674;28;20028;-51
2021/06/22 04:03:34;;;;;;;8.52;3.00;;;;;;;;;;5054879;28;20033;-52
2021/06/22 04:06:00;;;;;;;9.77;2.90;;;;;;;;;;5053781;28;20025;-51
2021/06/22 04:08:26;;;;;;;7.85;2.45;;;;;;;;;;5054479;28;20452;-51
2021/06/22 04:10:52;;;;;;;5.50;2.78;;;;;;;;;;5053512;28;20108;-51
2021/06/22 04:13:18;;;;;;;9.63;2.85;;;;;;;;;;5054402;28;20163;-51
2021/06/22 04:15:44;;;;;;;7.82;2.50;;;;;;;;;;5054167;28;20117;-51
2021/06/22 04:18:11;;;;;;;6.03;3.03;;;;;;;;;;5054549;28;20021;-51
2021/06/22 04:20:38;;;;;;;7.22;2.58;;;;;;;;;;5052334;28;20036;-51
2021/06/22 04:23:04;;;;;;;3.83;2.38;;;;;;;;;;5054548;28;20021;-51
2021/06/22 04:25:31;;;;;;;11.32;3.35;;;;;;;;;;5054116;28;20044;-51
2021/06/22 04:27:57;;;;;;;4.68;2.63;;;;;;;;;;5053411;28;20028;-51
2021/06/22 04:30:23;;;;;;;9.95;2.75;;;;;;;;;;5053478;28;20121;-53
2021/06/22 04:32:49;;;;;;;5.60;3.25;;;;;;;;;;5053728;28;20460;-53
2021/06/22 04:35:15;;;;;;;7.55;3.22;;;;;;;;;;5054028;28;20043;-51
2021/06/22 04:37:42;;;;;;;10.90;3.85;;;;;;;;;;5053736;28;20020;-57
2021/06/22 04:40:09;;;;;;;4.95;2.85;;;;;;;;;;5053329;28;20058;-57
2021/06/22 04:42:35;;;;;;;5.80;2.92;;;;;;;;;;5053952;28;20025;-56
2021/06/22 04:45:01;;;;;;;6.53;2.85;;;;;;;;;;5052781;28;20017;-54
2021/06/22 04:47:27;;;;;;;9.70;3.25;;;;;;;;;;5052359;28;20465;-58
2021/06/22 04:49:53;;;;;;;4.07;3.20;;;;;;;;;;5053751;28;20108;-54
2021/06/22 04:52:19;;;;;;;3.95;3.30;;;;;;;;;;5051392;28;20055;-55
2021/06/22 04:54:45;;;;;;;7.88;3.40;;;;;;;;;;5053855;28;20464;-53
2021/06/22 04:57:13;;;;;;;4.47;2.90;;;;;;;;;;5053346;28;20019;-53
2021/06/22 04:59:41;;;;;;;6.55;3.30;;;;;;;;;;5052848;28;20108;-53
2021/06/22 05:02:07;;;;;;;5.93;2.92;;;;;;;;;;5052191;28;20025;-53
2021/06/22 05:04:34;;;;;;;6.25;3.05;;;;;;;;;;5045673;28;20021;-55
2021/06/22 05:07:00;;;;;;;9.55;3.30;;;;;;;;;;5044023;28;20128;-57
2021/06/22 05:09:26;;;;;;;7.10;3.30;;;;;;;;;;5042414;28;20017;-54
2021/06/22 05:11:52;;;;;;;5.03;3.28;;;;;;;;;;5043958;28;20341;-52
2021/06/22 05:14:18;;;;;;;8.05;3.50;;;;;;;;;;5044746;28;20025;-52
2021/06/22 05:16:44;;;;;;;11.27;3.63;;;;;;;;;;5053397;28;20098;-52
2021/06/22 05:19:10;;;;;;;12.05;3.50;;;;;;;;;;5052793;28;20052;-52
2021/06/22 05:21:37;;;;;;;4.97;3.13;;;;;;;;;;5052473;28;20021;-52
2021/06/22 05:24:03;;;;;;;9.50;3.47;;;;;;;;;;5052948;28;20420;-57
2021/06/22 05:26:29;;;;;;;7.55;3.30;;;;;;;;;;5035286;28;20110;-58
2021/06/22 05:28:55;;;;;;;11.75;2.80;;;;;;;;;;5052963;28;20117;-57
2021/06/22 05:31:21;;;;;;;9.38;2.88;;;;;;;;;;5052353;28;20017;-58
2021/06/22 05:33:47;;;;;;;11.05;2.88;;;;;;;;;;5052400;28;20372;-58
2021/06/22 05:36:13;;;;;;;4.85;3.03;;;;;;;;;;5052803;28;20036;-58
2021/06/22 05:38:39;;;;;;;5.93;2.97;;;;;;;;;;5051405;28;20056;-58
2021/06/22 05:41:05;;;;;;;4.15;2.45;;;;;;;;;;5052357;28;20029;-58
2021/06/22 05:43:31;;;;;;;6.85;2.75;;;;;;;;;;5052485;28;20052;-58
2021/06/22 05:45:57;;;;;;;8.88;2.95;;;;;;;;;;5053245;28;20021;-58
2021/06/22 05:48:23;;;;;;;5.57;3.00;;;;;;;;;;5053000;28;20360;-58
2021/06/22 05:50:49;;;;;;;5.05;3.28;;;;;;;;;;5051727;28;20032;-58
2021/06/22 05:53:15;;;;;;;4.32;3.00;;;;;;;;;;5052876;28;20060;-58
2021/06/22 05:55:41;;;;;;;5.07;3.38;;;;;;;;;;5052650;28;20029;-58
2021/06/22 05:58:07;;;;;;;7.50;3.67;;;;;;;;;;5052784;28;20364;-58
2021/06/22 06:00:34;;;;;;;7.45;3.15;;;;;;;;;;5052041;28;20083;-57
2021/06/22 06:03:00;;;;;;;9.68;4.03;;;;;;;;;;5052903;28;20028;-57
2021/06/22 06:05:26;;;;;;;5.32;3.17;;;;;;;;;;5050774;28;20029;-58
2021/06/22 06:07:52;;;;;;;3.63;2.85;;;;;;;;;;5051129;28;20021;-58
2021/06/22 06:10:19;;;;;;;4.28;2.80;;;;;;;;;;5050470;28;20119;-58
2021/06/22 06:12:46;;;;;;;8.07;3.10;;;;;;;;;;5052988;28;20239;-57
2021/06/22 06:15:13;;;;;;;7.40;3.60;;;;;;;;;;5052278;28;20044;-57
2021/06/22 06:17:39;;;;;;;13.35;3.40;;;;;;;;;;5052259;28;20100;-57
2021/06/22 06:20:06;;;;;;;5.15;3.50;;;;;;;;;;5050217;28;20052;-58
2021/06/22 06:22:32;;;;;;;4.75;2.10;;;;;;;;;;5051108;28;20029;-57
2021/06/22 06:25:01;;;;;;;4.85;2.38;;;;;;;;;;5052365;28;20028;-57
2021/06/22 06:30:26;;;;;;;5.88;2.90;;;;;;;;;;5009134;28;20053;-57
2021/06/22 06:32:52;;;;;;;7.28;2.60;;;;;;;;;;5009892;28;20096;-58
2021/06/22 06:35:19;;;;;;;2.00;1.30;;;;;;;;;;5009939;28;20053;-57
2021/06/22 06:37:46;;;;;;;4.70;1.92;;;;;;;;;;5010553;28;20421;-57
2021/06/22 06:40:12;;;;;;;7.72;1.23;;;;;;;;;;4993140;28;20034;-58
2021/06/22 06:42:38;;;;;;;4.32;1.70;;;;;;;;;;5010264;28;20030;-57
2021/06/22 06:45:06;;;;;;;5.95;1.67;;;;;;;;;;5009724;28;20084;-57
2021/06/22 06:47:32;;;;;;;1.92;1.42;;;;;;;;;;5010123;28;20124;-57
2021/06/22 06:49:58;;;;;;;2.90;1.67;;;;;;;;;;4993520;28;20483;-57
2021/06/22 06:52:24;;;;;;;3.03;1.58;;;;;;;;;;4996811;28;20540;-57
2021/06/22 06:54:50;;;;;;;2.53;1.20;;;;;;;;;;4997257;28;20041;-57
2021/06/22 06:57:16;;;;;;;2.15;1.50;;;;;;;;;;5013412;28;20029;-57
2021/06/22 06:59:42;;;;;;;1.58;1.30;;;;;;;;;;5013628;28;20065;-57
2021/06/22 07:02:09;;;;;;;8.88;1.40;;;;;;;;;;5012966;28;20104;-57
2021/06/22 07:04:35;;;;;;;2.15;1.50;;;;;;;;;;5013687;28;20026;-57
2021/06/22 07:07:01;;;;;;;1.08;0.98;;;;;;;;;;5038859;28;20036;-57
2021/06/22 07:09:27;;;;;;;3.45;2.03;;;;;;;;;;5054149;28;20094;-57
2021/06/22 07:11:56;;;;;;;2.15;1.60;;;;;;;;;;5053602;28;20028;-58
2021/06/22 07:14:22;;;;;;;3.85;1.73;;;;;;;;;;5055666;28;20049;-57
2021/06/22 07:16:48;;;;;;;2.63;1.65;;;;;;;;;;5054308;28;20349;-57
2021/06/22 07:19:14;;;;;;;2.05;1.48;;;;;;;;;;5055569;28;20086;-57
2021/06/22 07:21:41;;;;;;;1.70;1.48;;;;;;;;;;5053416;28;20025;-57
2021/06/22 07:24:07;;;;;;;2.60;1.67;;;;;;;;;;5055298;28;20040;-57
2021/06/22 07:26:36;;;;;;;6.45;1.60;;;;;;;;;;5055232;28;20028;-57
2021/06/22 07:29:02;;;;;;;2.92;1.63;;;;;;;;;;5055539;28;20025;-58
2021/06/22 07:31:28;;;;;;;4.90;1.40;;;;;;;;;;5053614;28;20364;-57
2021/06/22 07:33:55;;;;;;;2.38;1.52;;;;;;;;;;5053642;28;20041;-57
2021/06/22 07:36:21;;;;;;;1.70;1.30;;;;;;;;;;5055013;28;20025;-57
2021/06/22 07:38:47;;;;;;;3.47;1.45;;;;;;;;;;5055140;28;20032;-57
2021/06/22 07:41:14;;;;;;;5.10;1.40;;;;;;;;;;5053991;28;20028;-57
2021/06/22 07:43:40;;;;;;;2.80;1.80;;;;;;;;;;5053926;28;20025;-57
2021/06/22 07:46:06;;;;;;;2.17;1.30;;;;;;;;;;5055109;28;20025;-57
2021/06/22 07:48:32;;;;;;;4.90;1.67;;;;;;;;;;5053397;28;20027;-57
2021/06/22 07:50:58;;;;;;;2.53;1.35;;;;;;;;;;5052586;28;20120;-57
2021/06/22 07:53:24;;;;;;;2.13;1.27;;;;;;;;;;5054940;28;20039;-57
2021/06/22 07:55:50;;;;;;;2.22;1.63;;;;;;;;;;5054531;28;20044;-57
2021/06/22 07:58:16;;;;;;;3.03;1.40;;;;;;;;;;5055207;28;20029;-57
2021/06/22 08:00:42;;;;;;;4.60;1.58;;;;;;;;;;5053887;28;20100;-57
2021/06/22 08:03:16;;;;;;;5.47;1.45;;;;;;;;;;5052291;28;20498;-57
2021/06/22 08:05:42;;;;;;;1.83;1.48;;;;;;;;;;5053259;28;20040;-57
2021/06/22 08:08:09;;;;;;;2.45;1.60;;;;;;;;;;5054537;28;20028;-57
2021/06/22 08:10:37;;;;;;;3.60;1.90;;;;;;;;;;5052527;28;20029;-57
2021/06/22 08:13:03;;;;;;;2.28;1.60;;;;;;;;;;5054435;28;20029;-57
2021/06/22 08:15:29;;;;;;;4.43;1.33;;;;;;;;;;5053012;28;20059;-57
2021/06/22 08:17:57;;;;;;;2.63;1.73;;;;;;;;;;5054694;28;20025;-57
2021/06/22 08:20:23;;;;;;;2.50;1.67;;;;;;;;;;5053546;28;20044;-57
2021/06/22 08:22:53;;;;;;;7.32;1.70;;;;;;;;;;5052651;28;20025;-57
2021/06/22 08:25:20;;;;;;;2.53;1.73;;;;;;;;;;5054295;28;20021;-57
2021/06/22 08:27:47;;;;;;;5.80;1.65;;;;;;;;;;5054177;28;20021;-57
2021/06/22 08:30:13;;;;;;;2.90;1.52;;;;;;;;;;5052208;28;20028;-56
2021/06/22 08:32:39;;;;;;;1.55;1.38;;;;;;;;;;5054213;28;20025;-57
2021/06/22 08:35:06;;;;;;;4.90;1.60;;;;;;;;;;5054030;28;20040;-57
2021/06/22 08:37:32;;;;;;;1.95;1.63;;;;;;;;;;5053606;28;20024;-57
2021/06/22 08:39:58;;;;;;;1.20;1.02;;;;;;;;;;5052521;28;20031;-57
2021/06/22 08:42:24;;;;;;;3.47;1.13;;;;;;;;;;5053307;28;20025;-57
2021/06/22 08:44:50;;;;;;;3.00;1.20;;;;;;;;;;5054016;28;20032;-57
2021/06/22 08:47:21;;;;;;;6.82;1.25;;;;;;;;;;5053832;28;20031;-57
2021/06/22 08:49:47;;;;;;;1.45;1.17;;;;;;;;;;5053479;28;20374;-57
2021/06/22 08:52:14;;;;;;;4.32;1.42;;;;;;;;;;5052787;28;20067;-57
2021/06/22 08:54:40;;;;;;;5.82;1.20;;;;;;;;;;5052706;28;20032;-57
2021/06/22 08:57:06;;;;;;;1.77;1.20;;;;;;;;;;5053536;28;20356;-57
2021/06/22 08:59:32;;;;;;;2.63;1.20;;;;;;;;;;5053951;28;20043;-57
2021/06/22 09:01:58;;;;;;;3.45;1.60;;;;;;;;;;5051165;28;20029;-57
2021/06/22 09:04:24;;;;;;;2.50;1.40;;;;;;;;;;5053449;28;20087;-56
2021/06/22 09:06:50;;;;;;;4.07;1.17;;;;;;;;;;5053162;28;20408;-57
2021/06/22 09:09:16;;;;;;;4.50;1.50;;;;;;;;;;5053192;28;20036;-57
2021/06/22 09:11:42;;;;;;;1.95;1.40;;;;;;;;;;5052539;28;20028;-57
2021/06/22 09:14:09;;;;;;;1.40;1.30;;;;;;;;;;5053069;28;20040;-57
2021/06/22 09:16:37;;;;;;;2.95;1.50;;;;;;;;;;5051963;28;20024;-57
2021/06/22 09:19:13;;;;;;;2.35;1.55;;;;;;;;;;5052959;28;20083;-57
2021/06/22 09:21:43;;;;;;;1.23;1.13;;;;;;;;;;5052314;28;20075;-57
2021/06/22 09:24:20;;;;;;;1.50;1.40;;;;;;;;;;5051925;28;20059;-57
2021/06/22 09:26:47;;;;;;;1.77;1.10;;;;;;;;;;5053110;28;20028;-57
2021/06/22 09:29:14;;;;;;;2.65;1.20;;;;;;;;;;5053033;28;20411;-56
2021/06/22 09:31:59;;;;;;;6.15;1.20;;;;;;;;;;5052001;28;20479;-57
2021/06/22 09:34:26;;;;;;;1.08;0.90;;;;;;;;;;5052075;28;20402;-57
2021/06/22 09:37:07;;;;;;;2.90;1.20;;;;;;;;;;5052463;28;20021;-57
2021/06/22 09:39:33;;;;;;;2.33;1.27;;;;;;;;;;5052830;28;20463;-57
2021/06/22 09:41:59;;;;;;;2.95;1.30;;;;;;;;;;5051964;28;20100;-57
2021/06/22 09:44:26;;;;;;;1.20;1.10;;;;;;;;;;5053032;28;20053;-57
2021/06/22 09:46:54;;;;;;;4.13;1.48;;;;;;;;;;5052806;28;20025;-57
2021/06/22 09:49:21;;;;;;;2.45;1.20;;;;;;;;;;5052635;28;20028;-57
2021/06/22 09:51:53;;;;;;;1.20;1.13;;;;;;;;;;5051945;28;20017;-57
2021/06/22 09:54:24;;;;;;;0.90;0.90;;;;;;;;;;5051258;28;20487;-57
2021/06/22 09:56:54;;;;;;;4.15;1.33;;;;;;;;;;5052842;28;20044;-57
2021/06/22 09:59:20;;;;;;;;;;;;;;;;;;5053052;28;20101;-57
2021/06/22 10:01:46;;;;;;;3.25;1.48;;;;;;;;;;5052116;28;19905;-57
2021/06/22 10:04:15;;;;;;;3.90;1.02;;;;;;;;;;5052534;28;20101;-56
2021/06/22 10:06:41;;;;;;;1.05;1.00;;;;;;;;;;5049944;28;20021;-57
2021/06/22 10:09:08;;;;;;;1.35;1.25;;;;;;;;;;5052301;28;20444;-57
2021/06/22 10:11:38;;;;;;;2.65;1.20;;;;;;;;;;5051688;28;20029;-57
2021/06/22 10:14:05;;;;;;;3.85;1.15;;;;;;;;;;5052690;28;20329;-57
2021/06/22 10:16:33;;;;;;;6.40;1.20;;;;;;;;;;5039008;28;20029;-57
2021/06/22 10:19:03;;;;;;;1.13;0.93;;;;;;;;;;5032328;28;20388;-57
2021/06/22 10:21:29;;;;;;;1.63;1.10;;;;;;;;;;5031923;28;20057;-57
2021/06/22 10:23:56;;;;;;;1.48;0.90;;;;;;;;;;5032412;28;20029;-56
2021/06/22 10:26:25;;;;;;;0.80;0.80;;;;;;;;;;5034622;28;20038;-57
2021/06/22 10:28:51;;;;;;;1.10;0.80;;;;;;;;;;5035350;28;20052;-56
2021/06/22 10:31:17;;;;;;;3.22;0.95;;;;;;;;;;5035675;28;20101;-57
2021/06/22 10:33:43;;;;;;;3.45;0.95;;;;;;;;;;5035126;28;20116;-57
2021/06/22 10:36:10;;;;;;;1.00;1.00;;;;;;;;;;5036270;28;20029;-56
2021/06/22 10:38:37;;;;;;;8.05;0.98;;;;;;;;;;5036208;28;20049;-57
2021/06/22 10:41:03;;;;;;;4.38;1.10;;;;;;;;;;5035326;28;20022;-57
2021/06/22 10:43:36;;;;;;;2.42;0.73;;;;;;;;;;5036125;28;20064;-56
2021/06/22 10:46:06;;;;;;;3.85;1.10;;;;;;;;;;5036400;28;20411;-58
2021/06/22 10:48:43;;;;;;;3.97;1.67;;;;;;;;;;5036440;28;20022;-54
2021/06/22 10:51:30;;;;;;;6.28;1.15;;;;;;;;;;5035192;28;20031;-56
2021/06/22 10:53:56;;;;;;;1.17;1.08;;;;;;;;;;5035849;28;20051;-56
2021/06/22 10:56:23;;;;;;;4.88;1.25;;;;;;;;;;5036033;28;20021;-56
2021/06/22 10:59:10;;;;;;;1.65;1.23;;;;;;;;;;5036441;28;20075;-56
2021/06/22 11:01:54;;;;;;;2.63;1.00;;;;;;;;;;5024555;28;20339;-55
2021/06/22 11:04:20;;;;;;;2.15;1.67;;;;;;;;;;5034431;28;20262;-56
2021/06/22 11:07:02;;;;;;;4.32;1.30;;;;;;;;;;5041352;28;20025;-56
2021/06/22 11:09:29;;;;;;;1.30;1.15;;;;;;;;;;5056015;28;20117;-56
2021/06/22 11:12:14;;;;;;;2.53;1.33;;;;;;;;;;5053280;28;20033;-56
2021/06/22 11:14:59;;;;;;;3.40;1.30;;;;;;;;;;5055711;28;20040;-56
2021/06/22 11:17:43;;;;;;;2.03;1.30;;;;;;;;;;5055220;28;20445;-56
2021/06/22 11:20:13;;;;;;;10.55;1.42;;;;;;;;;;5055107;28;20093;-56
2021/06/22 11:22:39;;;;;;;;;;;;;;;;;;5055869;28;20033;-56
2021/06/22 11:25:05;;;;;;;4.05;1.70;;;;;;;;;;5055218;28;19905;-56
2021/06/22 11:27:51;;;;;;;13.07;1.77;;;;;;;;;;5055222;28;20032;-56
2021/06/22 11:30:17;;;;;;;2.42;1.50;;;;;;;;;;5054714;28;20029;-56
2021/06/22 11:32:43;;;;;;;3.05;1.35;;;;;;;;;;5054671;28;20025;-56
2021/06/22 11:35:10;;;;;;;1.98;1.50;;;;;;;;;;5055146;28;20040;-56
2021/06/22 11:37:36;;;;;;;4.88;1.55;;;;;;;;;;5054418;28;20111;-56
2021/06/22 11:40:09;;;;;;;2.38;1.20;;;;;;;;;;5054048;28;20056;-56
2021/06/22 11:42:37;;;;;;;5.63;1.38;;;;;;;;;;5053398;28;20370;-56
2021/06/22 11:45:04;;;;;;;5.70;1.45;;;;;;;;;;5053878;28;20021;-56
2021/06/22 11:47:33;;;;;;;5.13;1.35;;;;;;;;;;5054509;28;20025;-56
2021/06/22 11:50:00;;;;;;;1.33;1.23;;;;;;;;;;5054711;28;20079;-56
2021/06/22 11:52:33;;;;;;;1.48;1.38;;;;;;;;;;5054110;28;20047;-55
2021/06/22 11:55:00;;;;;;;4.68;2.00;;;;;;;;;;5053600;28;20051;-56
2021/06/22 11:57:34;;;;;;;1.67;1.58;;;;;;;;;;5054629;28;20021;-56
2021/06/22 12:00:06;;;;;;;5.03;1.40;;;;;;;;;;5054474;28;20472;-56
2021/06/22 12:02:32;;;;;;;2.75;1.70;;;;;;;;;;5054301;28;20025;-56
2021/06/22 12:04:58;;;;;;;1.52;1.20;;;;;;;;;;5054499;28;20111;-56
2021/06/22 12:07:24;;;;;;;3.00;1.42;;;;;;;;;;5054482;28;20478;-56
2021/06/22 12:09:50;;;;;;;2.33;1.63;;;;;;;;;;5054683;28;20355;-56
2021/06/22 12:12:16;;;;;;;2.70;1.65;;;;;;;;;;5053451;28;20056;-56
2021/06/22 12:14:46;;;;;;;1.73;1.33;;;;;;;;;;5054466;28;20037;-56
2021/06/22 12:17:19;;;;;;;5.72;1.50;;;;;;;;;;5054350;28;20024;-56
2021/06/22 12:19:45;;;;;;;5.50;1.75;;;;;;;;;;5053195;28;20041;-56
2021/06/22 12:22:15;;;;;;;1.23;1.13;;;;;;;;;;5053702;28;20078;-56
2021/06/22 12:24:42;;;;;;;5.68;1.33;;;;;;;;;;5054257;28;20104;-56
2021/06/22 12:27:08;;;;;;;2.33;1.48;;;;;;;;;;5053908;28;20035;-56
2021/06/22 12:29:34;;;;;;;4.68;1.70;;;;;;;;;;5054109;28;20079;-56
2021/06/22 12:32:00;;;;;;;2.67;1.90;;;;;;;;;;5049459;28;20104;-56
2021/06/22 12:34:28;;;;;;;1.90;1.50;;;;;;;;;;5034048;28;20120;-56
2021/06/22 12:36:56;;;;;;;1.30;1.15;;;;;;;;;;5034303;28;20395;-56
2021/06/22 12:39:23;;;;;;;4.05;1.58;;;;;;;;;;5033600;28;20132;-55
2021/06/22 12:41:49;;;;;;;2.67;1.08;;;;;;;;;;5033389;28;20038;-56
2021/06/22 12:44:15;;;;;;;1.40;1.30;;;;;;;;;;5034051;28;20021;-55
2021/06/22 12:46:43;;;;;;;3.30;1.65;;;;;;;;;;5034107;28;20378;-55
2021/06/22 12:49:11;;;;;;;2.30;1.55;;;;;;;;;;5033112;28;20103;-56
2021/06/22 12:51:38;;;;;;;2.55;1.60;;;;;;;;;;5031915;28;20041;-55
2021/06/22 12:54:05;;;;;;;4.43;1.65;;;;;;;;;;5033043;28;20477;-55
2021/06/22 12:56:31;;;;;;;1.38;1.20;;;;;;;;;;5033039;28;20052;-56
2021/06/22 12:58:57;;;;;;;5.20;1.52;;;;;;;;;;5033699;28;20021;-56
2021/06/22 13:01:32;;;;;;;1.40;1.30;;;;;;;;;;5051626;28;20029;-56
2021/06/22 13:03:59;;;;;;;3.33;2.03;;;;;;;;;;5053457;28;20401;-56
2021/06/22 13:06:29;;;;;;;3.00;1.90;;;;;;;;;;5053300;28;20107;-56
2021/06/22 13:08:56;;;;;;;3.85;2.90;;;;;;;;;;5053193;28;20113;-56
2021/06/22 13:11:26;;;;;;;5.00;2.33;;;;;;;;;;5051592;28;20490;-56
2021/06/22 13:13:52;;;;;;;3.53;2.20;;;;;;;;;;5053272;28;20502;-56
2021/06/22 13:16:20;;;;;;;3.40;2.45;;;;;;;;;;5053318;28;20021;-56
2021/06/22 13:18:58;;;;;;;7.05;3.28;;;;;;;;;;5053167;28;20091;-56
2021/06/22 13:21:34;;;;;;;4.90;3.15;;;;;;;;;;5052345;28;20081;-56
2021/06/22 13:24:00;;;;;;;9.10;2.78;;;;;;;;;;5053446;28;20025;-56
2021/06/22 13:26:27;;;;;;;3.63;2.92;;;;;;;;;;5053079;28;20052;-56
2021/06/22 13:28:59;;;;;;;7.00;2.72;;;;;;;;;;5052955;28;20017;-56
2021/06/22 13:31:26;;;;;;;6.95;2.58;;;;;;;;;;5052323;28;20036;-56
2021/06/22 13:33:58;;;;;;;3.47;2.38;;;;;;;;;;5052879;28;20038;-55
2021/06/22 13:36:25;;;;;;;2.72;2.20;;;;;;;;;;5052852;28;20025;-56
2021/06/22 13:39:00;;;;;;;4.38;2.55;;;;;;;;;;5053084;28;20025;-56
2021/06/22 13:41:26;;;;;;;3.75;2.00;;;;;;;;;;5052325;28;20024;-56
2021/06/22 13:43:53;;;;;;;6.32;2.33;;;;;;;;;;5052598;28;20032;-55
2021/06/22 13:46:25;;;;;;;5.47;2.70;;;;;;;;;;5051078;28;20502;-56
2021/06/22 13:48:52;;;;;;;3.72;1.80;;;;;;;;;;5051482;28;20494;-56
2021/06/22 13:51:27;;;;;;;5.72;2.10;;;;;;;;;;5052114;28;20028;-56
2021/06/22 13:54:02;;;;;;;2.50;1.83;;;;;;;;;;5052575;28;20021;-56
2021/06/22 13:56:28;;;;;;;2.20;1.90;;;;;;;;;;5052633;28;20108;-55
2021/06/22 13:58:54;;;;;;;2.00;1.65;;;;;;;;;;5050875;28;20112;-56
2021/06/22 14:01:20;;;;;;;2.15;1.90;;;;;;;;;;5051776;28;20017;-56
2021/06/22 14:03:46;;;;;;;6.45;1.83;;;;;;;;;;5051285;28;20025;-56
2021/06/22 14:06:12;;;;;;;2.65;1.90;;;;;;;;;;5051417;28;20498;-56
2021/06/22 14:08:39;;;;;;;2.53;1.92;;;;;;;;;;5051190;28;20025;-56
2021/06/22 14:11:05;;;;;;;3.50;2.10;;;;;;;;;;5051400;28;20013;-56
2021/06/22 14:13:31;;;;;;;3.00;2.08;;;;;;;;;;5052933;28;20104;-56
2021/06/22 14:15:58;;;;;;;4.25;2.10;;;;;;;;;;5052403;28;20025;-56
2021/06/22 14:18:24;;;;;;;4.75;1.83;;;;;;;;;;5052651;28;20060;-56
2021/06/22 14:20:51;;;;;;;3.22;1.92;;;;;;;;;;5051603;28;20040;-56
2021/06/22 14:23:17;;;;;;;3.38;2.20;;;;;;;;;;5051213;28;20025;-55
2021/06/22 14:25:44;;;;;;;4.50;2.05;;;;;;;;;;5052260;28;20044;-55
2021/06/22 14:28:17;;;;;;;5.70;2.17;;;;;;;;;;5052659;28;20029;-56
2021/06/22 14:30:43;;;;;;;4.95;2.38;;;;;;;;;;5051735;28;20025;-56
2021/06/22 14:33:09;;;;;;;3.33;2.28;;;;;;;;;;5052640;28;20025;-56
2021/06/22 14:35:35;;;;;;;6.05;2.35;;;;;;;;;;5052450;28;20519;-56
2021/06/22 14:38:01;;;;;;;3.60;2.30;;;;;;;;;;5051708;28;20107;-56
2021/06/22 14:40:27;;;;;;;3.45;2.70;;;;;;;;;;5051327;28;20061;-56
2021/06/22 14:42:54;;;;;;;12.43;2.35;;;;;;;;;;5052645;28;20028;-56
2021/06/22 14:45:22;;;;;;;3.22;1.98;;;;;;;;;;5050857;28;20027;-56
2021/06/22 14:47:48;;;;;;;5.32;2.28;;;;;;;;;;5050983;28;20068;-56